sensor_id;sensor_type;location;lat;lon;timestamp;pressure;altitude;pressure_sealevel;temperature;humidity
56604;BME280;42486;47.478;19.036;2023-04-15T00:00:33;99197.56;;;5.52;100.00
56604;BME280;42486;47.478;19.036;2023-04-15T00:03:38;99197.62;;;5.64;100.00
56604;BME280;42486;47.478;19.036;2023-04-15T00:06:42;99197.97;;;5.59;100.00
56604;BME280;42486;47.478;19.036;2023-04-15T00:09:54;99199.28;;;5.65;100.00
56604;BME280;42486;47.478;19.036;2023-04-15T00:12:59;99196.62;;;5.78;100.00
56604;BME280;42486;47.478;19.036;2023-04-15T00:16:05;99205.69;;;5.72;100.00
56604;BME280;42486;47.478;19.036;2023-04-15T00:19:10;99201.53;;;5.69;100.00
56604;BME280;42486;47.478;19.036;2023-04-15T00:22:14;99204.75;;;5.73;100.00
56604;BME280;42486;47.478;19.036;2023-04-15T00:25:22;99195.19;;;5.73;100.00
56604;BME280;42486;47.478;19.036;2023-04-15T00:28:26;99200.81;;;5.67;100.00
56604;BME280;42486;47.478;19.036;2023-04-15T00:31:30;99200.06;;;5.78;100.00
56604;BME280;42486;47.478;19.036;2023-04-15T00:34:34;99195.91;;;5.76;100.00
56604;BME280;42486;47.478;19.036;2023-04-15T00:37:37;99185.91;;;5.82;100.00
56604;BME280;42486;47.478;19.036;2023-04-15T00:40:41;99185.81;;;5.84;100.00
56604;BME280;42486;47.478;19.036;2023-04-15T00:43:46;99191.72;;;5.86;100.00
56604;BME280;42486;47.478;19.036;2023-04-15T00:46:51;99190.06;;;5.85;100.00
56604;BME280;42486;47.478;19.036;2023-04-15T00:49:55;99206.22;;;5.88;100.00
56604;BME280;42486;47.478;19.036;2023-04-15T00:53:01;99193.44;;;5.98;100.00
56604;BME280;42486;47.478;19.036;2023-04-15T00:56:05;99190.16;;;5.96;100.00
56604;BME280;42486;47.478;19.036;2023-04-15T00:59:10;99194.63;;;5.94;100.00
56604;BME280;42486;47.478;19.036;2023-04-15T01:02:14;99184.97;;;5.96;100.00
56604;BME280;42486;47.478;19.036;2023-04-15T01:05:19;99184.13;;;5.95;100.00
56604;BME280;42486;47.478;19.036;2023-04-15T01:08:28;99186.31;;;5.89;100.00
56604;BME280;42486;47.478;19.036;2023-04-15T01:11:32;99177.81;;;5.87;100.00
56604;BME280;42486;47.478;19.036;2023-04-15T01:14:38;99179.66;;;5.98;100.00
56604;BME280;42486;47.478;19.036;2023-04-15T01:17:41;99178.59;;;6.00;100.00
56604;BME280;42486;47.478;19.036;2023-04-15T01:20:47;99172.81;;;5.97;100.00
56604;BME280;42486;47.478;19.036;2023-04-15T01:23:50;99177.94;;;5.85;100.00
56604;BME280;42486;47.478;19.036;2023-04-15T01:26:55;99172.63;;;5.87;100.00
56604;BME280;42486;47.478;19.036;2023-04-15T01:29:59;99177.19;;;5.96;100.00
56604;BME280;42486;47.478;19.036;2023-04-15T01:33:02;99177.87;;;5.98;100.00
56604;BME280;42486;47.478;19.036;2023-04-15T01:36:06;99183.56;;;6.03;100.00
56604;BME280;42486;47.478;19.036;2023-04-15T01:39:10;99186.53;;;6.10;100.00
56604;BME280;42486;47.478;19.036;2023-04-15T01:42:14;99191.00;;;6.08;100.00
56604;BME280;42486;47.478;19.036;2023-04-15T01:45:17;99190.06;;;6.09;100.00
56604;BME280;42486;47.478;19.036;2023-04-15T01:48:21;99194.66;;;6.16;100.00
56604;BME280;42486;47.478;19.036;2023-04-15T01:51:24;99189.25;;;6.20;100.00
56604;BME280;42486;47.478;19.036;2023-04-15T01:54:30;99185.66;;;6.33;100.00
56604;BME280;42486;47.478;19.036;2023-04-15T01:57:33;99187.88;;;6.27;100.00
56604;BME280;42486;47.478;19.036;2023-04-15T02:00:37;99193.19;;;6.25;100.00
56604;BME280;42486;47.478;19.036;2023-04-15T02:03:41;99193.53;;;6.32;100.00
56604;BME280;42486;47.478;19.036;2023-04-15T02:06:45;99190.22;;;6.30;100.00
56604;BME280;42486;47.478;19.036;2023-04-15T02:09:48;99195.66;;;6.27;100.00
56604;BME280;42486;47.478;19.036;2023-04-15T02:12:52;99190.69;;;6.24;100.00
56604;BME280;42486;47.478;19.036;2023-04-15T02:15:55;99191.41;;;6.26;100.00
56604;BME280;42486;47.478;19.036;2023-04-15T02:18:59;99198.97;;;6.29;100.00
56604;BME280;42486;47.478;19.036;2023-04-15T02:22:03;99203.56;;;6.36;100.00
56604;BME280;42486;47.478;19.036;2023-04-15T02:25:06;99194.09;;;6.24;100.00
56604;BME280;42486;47.478;19.036;2023-04-15T02:28:09;99198.56;;;6.22;100.00
56604;BME280;42486;47.478;19.036;2023-04-15T02:31:14;99198.25;;;6.27;100.00
56604;BME280;42486;47.478;19.036;2023-04-15T02:34:17;99202.88;;;6.34;100.00
56604;BME280;42486;47.478;19.036;2023-04-15T02:37:23;99203.44;;;6.27;100.00
56604;BME280;42486;47.478;19.036;2023-04-15T02:40:29;99202.97;;;6.33;100.00
56604;BME280;42486;47.478;19.036;2023-04-15T02:43:33;99209.47;;;6.38;100.00
56604;BME280;42486;47.478;19.036;2023-04-15T02:46:37;99200.66;;;6.52;100.00
56604;BME280;42486;47.478;19.036;2023-04-15T02:49:42;99208.19;;;6.44;100.00
56604;BME280;42486;47.478;19.036;2023-04-15T02:52:47;99198.41;;;6.48;100.00
56604;BME280;42486;47.478;19.036;2023-04-15T02:55:51;99199.38;;;6.58;100.00
56604;BME280;42486;47.478;19.036;2023-04-15T02:58:55;99201.72;;;6.61;100.00
56604;BME280;42486;47.478;19.036;2023-04-15T03:02:01;99199.72;;;6.53;100.00
56604;BME280;42486;47.478;19.036;2023-04-15T03:05:04;99193.22;;;6.59;100.00
56604;BME280;42486;47.478;19.036;2023-04-15T03:08:08;99194.41;;;6.55;100.00
56604;BME280;42486;47.478;19.036;2023-04-15T03:11:13;99198.53;;;6.57;100.00
56604;BME280;42486;47.478;19.036;2023-04-15T03:14:19;99197.25;;;6.63;100.00
56604;BME280;42486;47.478;19.036;2023-04-15T03:17:23;99195.25;;;6.55;100.00
56604;BME280;42486;47.478;19.036;2023-04-15T03:20:26;99194.91;;;6.60;100.00
56604;BME280;42486;47.478;19.036;2023-04-15T03:23:30;99195.00;;;6.58;100.00
56604;BME280;42486;47.478;19.036;2023-04-15T03:26:35;99191.69;;;6.56;100.00
56604;BME280;42486;47.478;19.036;2023-04-15T03:29:39;99192.87;;;6.52;100.00
56604;BME280;42486;47.478;19.036;2023-04-15T03:32:43;99198.53;;;6.57;100.00
56604;BME280;42486;47.478;19.036;2023-04-15T03:35:47;99193.00;;;6.62;100.00
56604;BME280;42486;47.478;19.036;2023-04-15T03:38:49;99195.72;;;6.60;100.00
56604;BME280;42486;47.478;19.036;2023-04-15T03:41:53;99198.41;;;6.59;100.00
56604;BME280;42486;47.478;19.036;2023-04-15T03:44:56;99195.81;;;6.59;100.00
56604;BME280;42486;47.478;19.036;2023-04-15T03:47:59;99201.84;;;6.59;100.00
56604;BME280;42486;47.478;19.036;2023-04-15T03:51:05;99196.44;;;6.62;100.00
56604;BME280;42486;47.478;19.036;2023-04-15T03:54:08;99200.19;;;6.58;100.00
56604;BME280;42486;47.478;19.036;2023-04-15T03:57:12;99186.50;;;6.56;100.00
56604;BME280;42486;47.478;19.036;2023-04-15T04:00:16;99193.47;;;6.56;100.00
56604;BME280;42486;47.478;19.036;2023-04-15T04:03:19;99189.34;;;6.53;100.00
56604;BME280;42486;47.478;19.036;2023-04-15T04:06:23;99192.63;;;6.55;100.00
56604;BME280;42486;47.478;19.036;2023-04-15T04:09:26;99195.81;;;6.59;100.00
56604;BME280;42486;47.478;19.036;2023-04-15T04:12:32;99190.38;;;6.62;100.00
56604;BME280;42486;47.478;19.036;2023-04-15T04:15:35;99182.16;;;6.57;100.00
56604;BME280;42486;47.478;19.036;2023-04-15T04:18:39;99190.88;;;6.67;100.00
56604;BME280;42486;47.478;19.036;2023-04-15T04:21:43;99189.94;;;6.68;100.00
56604;BME280;42486;47.478;19.036;2023-04-15T04:24:48;99195.38;;;6.65;100.00
56604;BME280;42486;47.478;19.036;2023-04-15T04:27:53;99195.38;;;6.76;100.00
56604;BME280;42486;47.478;19.036;2023-04-15T04:30:58;99191.97;;;6.76;100.00
56604;BME280;42486;47.478;19.036;2023-04-15T04:34:03;99201.53;;;6.87;100.00
56604;BME280;42486;47.478;19.036;2023-04-15T04:37:07;99198.94;;;6.87;100.00
56604;BME280;42486;47.478;19.036;2023-04-15T04:40:11;99199.03;;;6.85;100.00
56604;BME280;42486;47.478;19.036;2023-04-15T04:43:14;99192.44;;;6.92;100.00
56604;BME280;42486;47.478;19.036;2023-04-15T04:46:18;99183.09;;;6.90;100.00
56604;BME280;42486;47.478;19.036;2023-04-15T04:49:22;99191.34;;;7.06;100.00
56604;BME280;42486;47.478;19.036;2023-04-15T04:52:25;99197.81;;;7.23;100.00
56604;BME280;42486;47.478;19.036;2023-04-15T04:55:28;99197.22;;;7.31;100.00
56604;BME280;42486;47.478;19.036;2023-04-15T04:58:34;99202.59;;;7.61;100.00
56604;BME280;42486;47.478;19.036;2023-04-15T05:01:38;99206.78;;;7.85;100.00
56604;BME280;42486;47.478;19.036;2023-04-15T05:04:42;99198.16;;;8.05;100.00
56604;BME280;42486;47.478;19.036;2023-04-15T05:07:44;99199.16;;;8.25;100.00
56604;BME280;42486;47.478;19.036;2023-04-15T05:10:47;99199.63;;;8.51;100.00
56604;BME280;42486;47.478;19.036;2023-04-15T05:13:52;99204.19;;;8.59;100.00
56604;BME280;42486;47.478;19.036;2023-04-15T05:16:58;99200.91;;;8.67;100.00
56604;BME280;42486;47.478;19.036;2023-04-15T05:20:03;99215.09;;;8.74;100.00
56604;BME280;42486;47.478;19.036;2023-04-15T05:23:06;99214.53;;;8.70;100.00
56604;BME280;42486;47.478;19.036;2023-04-15T05:26:09;99209.56;;;8.67;100.00
56604;BME280;42486;47.478;19.036;2023-04-15T05:29:15;99210.50;;;8.24;100.00
56604;BME280;42486;47.478;19.036;2023-04-15T05:32:19;99210.28;;;8.16;100.00
56604;BME280;42486;47.478;19.036;2023-04-15T05:35:22;99212.09;;;8.36;100.00
56604;BME280;42486;47.478;19.036;2023-04-15T05:38:25;99213.84;;;8.47;100.00
56604;BME280;42486;47.478;19.036;2023-04-15T05:41:28;99211.41;;;8.55;100.00
56604;BME280;42486;47.478;19.036;2023-04-15T05:44:32;99223.50;;;8.56;100.00
56604;BME280;42486;47.478;19.036;2023-04-15T05:47:35;99221.00;;;8.55;100.00
56604;BME280;42486;47.478;19.036;2023-04-15T05:50:42;99223.28;;;8.69;100.00
56604;BME280;42486;47.478;19.036;2023-04-15T05:53:45;99231.31;;;8.87;100.00
56604;BME280;42486;47.478;19.036;2023-04-15T05:56:49;99230.03;;;9.02;100.00
56604;BME280;42486;47.478;19.036;2023-04-15T05:59:53;99226.66;;;9.21;100.00
56604;BME280;42486;47.478;19.036;2023-04-15T06:02:58;99220.53;;;8.92;100.00
56604;BME280;42486;47.478;19.036;2023-04-15T06:06:03;99232.03;;;8.89;100.00
56604;BME280;42486;47.478;19.036;2023-04-15T06:09:06;99241.88;;;8.86;100.00
56604;BME280;42486;47.478;19.036;2023-04-15T06:12:11;99238.66;;;9.03;100.00
56604;BME280;42486;47.478;19.036;2023-04-15T06:15:17;99241.97;;;9.15;100.00
56604;BME280;42486;47.478;19.036;2023-04-15T06:18:21;99243.47;;;9.48;100.00
56604;BME280;42486;47.478;19.036;2023-04-15T06:21:25;99249.28;;;9.61;100.00
56604;BME280;42486;47.478;19.036;2023-04-15T06:24:28;99249.13;;;9.53;100.00
56604;BME280;42486;47.478;19.036;2023-04-15T06:27:35;99247.13;;;9.26;100.00
56604;BME280;42486;47.478;19.036;2023-04-15T06:30:38;99250.50;;;9.17;100.00
56604;BME280;42486;47.478;19.036;2023-04-15T06:33:45;99254.94;;;9.26;100.00
56604;BME280;42486;47.478;19.036;2023-04-15T06:36:49;99263.34;;;9.39;100.00
56604;BME280;42486;47.478;19.036;2023-04-15T06:39:52;99266.12;;;9.57;100.00
56604;BME280;42486;47.478;19.036;2023-04-15T06:42:57;99263.38;;;10.38;100.00
56604;BME280;42486;47.478;19.036;2023-04-15T06:46:01;99271.16;;;11.52;100.00
56604;BME280;42486;47.478;19.036;2023-04-15T06:49:05;99274.41;;;12.45;96.26
56604;BME280;42486;47.478;19.036;2023-04-15T06:52:09;99276.22;;;12.70;94.08
56604;BME280;42486;47.478;19.036;2023-04-15T06:55:12;99279.81;;;13.56;86.89
56604;BME280;42486;47.478;19.036;2023-04-15T06:58:17;99277.87;;;14.49;79.55
56604;BME280;42486;47.478;19.036;2023-04-15T07:01:21;99285.94;;;14.56;78.54
56604;BME280;42486;47.478;19.036;2023-04-15T07:04:26;99291.00;;;16.78;70.87
56604;BME280;42486;47.478;19.036;2023-04-15T07:07:29;99297.56;;;19.28;57.84
56604;BME280;42486;47.478;19.036;2023-04-15T07:10:34;99288.91;;;18.13;59.52
56604;BME280;42486;47.478;19.036;2023-04-15T07:13:37;99291.87;;;18.03;57.79
56604;BME280;42486;47.478;19.036;2023-04-15T07:16:42;99286.69;;;17.14;60.95
56604;BME280;42486;47.478;19.036;2023-04-15T07:19:47;99288.12;;;15.72;67.28
56604;BME280;42486;47.478;19.036;2023-04-15T07:22:51;99283.41;;;14.30;75.57
56604;BME280;42486;47.478;19.036;2023-04-15T07:25:54;99294.59;;;16.62;66.24
56604;BME280;42486;47.478;19.036;2023-04-15T07:28:58;99300.97;;;19.98;53.76
56604;BME280;42486;47.478;19.036;2023-04-15T07:32:02;99314.87;;;21.98;47.56
56604;BME280;42486;47.478;19.036;2023-04-15T07:35:05;99303.66;;;21.38;45.67
56604;BME280;42486;47.478;19.036;2023-04-15T07:38:08;99303.09;;;20.49;49.74
56604;BME280;42486;47.478;19.036;2023-04-15T07:41:14;99304.69;;;20.23;50.47
56604;BME280;42486;47.478;19.036;2023-04-15T07:44:17;99300.00;;;19.57;51.97
56604;BME280;42486;47.478;19.036;2023-04-15T07:47:21;99297.56;;;19.21;52.33
56604;BME280;42486;47.478;19.036;2023-04-15T07:50:24;99304.97;;;20.55;49.33
56604;BME280;42486;47.478;19.036;2023-04-15T07:53:29;99310.28;;;21.73;45.71
56604;BME280;42486;47.478;19.036;2023-04-15T07:56:34;99304.91;;;21.22;44.71
56604;BME280;42486;47.478;19.036;2023-04-15T07:59:46;99311.22;;;21.92;43.75
56604;BME280;42486;47.478;19.036;2023-04-15T08:02:52;99306.75;;;21.28;43.80
56604;BME280;42486;47.478;19.036;2023-04-15T08:05:56;99299.34;;;18.00;51.57
56604;BME280;42486;47.478;19.036;2023-04-15T08:09:00;99293.25;;;15.02;63.66
56604;BME280;42486;47.478;19.036;2023-04-15T08:12:06;99292.28;;;14.13;70.66
56604;BME280;42486;47.478;19.036;2023-04-15T08:15:14;99285.69;;;13.50;75.64
56604;BME280;42486;47.478;19.036;2023-04-15T08:18:18;99290.38;;;13.72;74.36
56604;BME280;42486;47.478;19.036;2023-04-15T08:21:22;99298.03;;;13.57;72.33
56604;BME280;42486;47.478;19.036;2023-04-15T08:24:26;99288.47;;;13.48;72.41
56604;BME280;42486;47.478;19.036;2023-04-15T08:27:29;99288.72;;;13.71;72.81
56604;BME280;42486;47.478;19.036;2023-04-15T08:30:33;99303.53;;;13.80;74.34
56604;BME280;42486;47.478;19.036;2023-04-15T08:33:37;99300.06;;;13.37;72.19
56604;BME280;42486;47.478;19.036;2023-04-15T08:36:44;99305.72;;;12.72;77.32
56604;BME280;42486;47.478;19.036;2023-04-15T08:39:48;99306.25;;;12.04;83.78
56604;BME280;42486;47.478;19.036;2023-04-15T08:42:52;99309.78;;;11.85;78.56
56604;BME280;42486;47.478;19.036;2023-04-15T08:45:59;99314.56;;;11.72;79.16
56604;BME280;42486;47.478;19.036;2023-04-15T08:49:03;99316.88;;;11.75;77.91
56604;BME280;42486;47.478;19.036;2023-04-15T08:52:09;99309.13;;;12.11;78.26
56604;BME280;42486;47.478;19.036;2023-04-15T08:55:14;99314.06;;;12.32;77.71
56604;BME280;42486;47.478;19.036;2023-04-15T08:58:18;99311.44;;;12.50;78.18
56604;BME280;42486;47.478;19.036;2023-04-15T09:01:24;99310.28;;;12.70;76.14
56604;BME280;42486;47.478;19.036;2023-04-15T09:04:29;99317.31;;;13.14;74.05
56604;BME280;42486;47.478;19.036;2023-04-15T09:07:33;99313.09;;;13.47;69.49
56604;BME280;42486;47.478;19.036;2023-04-15T09:10:38;99317.16;;;13.41;71.78
56604;BME280;42486;47.478;19.036;2023-04-15T09:13:42;99318.31;;;12.95;68.76
56604;BME280;42486;47.478;19.036;2023-04-15T09:16:58;99318.16;;;12.70;74.70
56604;BME280;42486;47.478;19.036;2023-04-15T09:20:09;99315.94;;;12.40;72.64
56604;BME280;42486;47.478;19.036;2023-04-15T09:23:14;99321.47;;;12.19;74.85
56604;BME280;42486;47.478;19.036;2023-04-15T09:26:29;99324.16;;;12.27;76.14
56604;BME280;42486;47.478;19.036;2023-04-15T09:29:32;99321.56;;;12.45;78.85
56604;BME280;42486;47.478;19.036;2023-04-15T09:32:36;99318.38;;;13.03;78.81
56604;BME280;42486;47.478;19.036;2023-04-15T09:36:03;99313.03;;;13.13;74.22
56604;BME280;42486;47.478;19.036;2023-04-15T09:39:07;99316.09;;;12.38;76.17
56604;BME280;42486;47.478;19.036;2023-04-15T09:42:11;99322.66;;;12.24;80.06
56604;BME280;42486;47.478;19.036;2023-04-15T09:45:16;99322.75;;;12.32;80.75
56604;BME280;42486;47.478;19.036;2023-04-15T09:48:21;99329.25;;;12.64;79.62
56604;BME280;42486;47.478;19.036;2023-04-15T09:51:33;99324.88;;;12.73;76.80
56604;BME280;42486;47.478;19.036;2023-04-15T09:54:36;99326.12;;;12.61;75.87
56604;BME280;42486;47.478;19.036;2023-04-15T09:57:40;99323.78;;;12.22;76.71
56604;BME280;42486;47.478;19.036;2023-04-15T10:00:45;99325.50;;;12.13;81.08
56604;BME280;42486;47.478;19.036;2023-04-15T10:03:49;99331.91;;;12.01;80.31
56604;BME280;42486;47.478;19.036;2023-04-15T10:06:54;99323.47;;;12.07;81.11
56604;BME280;42486;47.478;19.036;2023-04-15T10:09:59;99328.97;;;11.86;80.28
56604;BME280;42486;47.478;19.036;2023-04-15T10:13:06;99327.91;;;11.79;83.15
56604;BME280;42486;47.478;19.036;2023-04-15T10:16:15;99334.31;;;12.12;81.20
56604;BME280;42486;47.478;19.036;2023-04-15T10:19:20;99337.69;;;12.22;80.37
56604;BME280;42486;47.478;19.036;2023-04-15T10:22:29;99350.12;;;12.02;82.70
56604;BME280;42486;47.478;19.036;2023-04-15T10:25:35;99348.13;;;11.77;86.55
56604;BME280;42486;47.478;19.036;2023-04-15T10:28:45;99341.78;;;11.89;83.44
56604;BME280;42486;47.478;19.036;2023-04-15T10:31:50;99348.47;;;12.55;81.71
56604;BME280;42486;47.478;19.036;2023-04-15T10:34:54;99348.31;;;13.18;79.22
56604;BME280;42486;47.478;19.036;2023-04-15T10:38:01;99353.34;;;13.30;73.16
56604;BME280;42486;47.478;19.036;2023-04-15T10:41:14;99344.00;;;13.09;74.61
56604;BME280;42486;47.478;19.036;2023-04-15T10:44:24;99345.53;;;12.76;75.93
56604;BME280;42486;47.478;19.036;2023-04-15T10:47:27;99350.59;;;12.69;78.57
56604;BME280;42486;47.478;19.036;2023-04-15T10:50:33;99362.50;;;12.46;81.22
56604;BME280;42486;47.478;19.036;2023-04-15T10:53:37;99354.84;;;12.34;83.36
56604;BME280;42486;47.478;19.036;2023-04-15T10:56:42;99359.41;;;12.32;86.73
56604;BME280;42486;47.478;19.036;2023-04-15T11:03:06;99368.53;;;12.46;89.17
56604;BME280;42486;47.478;19.036;2023-04-15T11:06:11;99368.22;;;12.14;89.65
56604;BME280;42486;47.478;19.036;2023-04-15T11:09:29;99374.78;;;12.00;88.28
56604;BME280;42486;47.478;19.036;2023-04-15T11:12:34;99380.69;;;12.02;86.89
56604;BME280;42486;47.478;19.036;2023-04-15T11:15:40;99370.94;;;12.40;84.03
56604;BME280;42486;47.478;19.036;2023-04-15T11:19:02;99376.47;;;12.54;83.44
56604;BME280;42486;47.478;19.036;2023-04-15T11:22:10;99378.50;;;12.43;82.75
56604;BME280;42486;47.478;19.036;2023-04-15T11:25:27;99367.50;;;12.57;85.53
56604;BME280;42486;47.478;19.036;2023-04-15T11:28:31;99371.00;;;12.84;85.23
56604;BME280;42486;47.478;19.036;2023-04-15T11:31:34;99370.97;;;13.02;77.66
56604;BME280;42486;47.478;19.036;2023-04-15T11:34:37;99361.84;;;13.32;80.99
56604;BME280;42486;47.478;19.036;2023-04-15T11:37:40;99358.88;;;13.27;76.77
56604;BME280;42486;47.478;19.036;2023-04-15T11:40:44;99360.00;;;13.50;78.38
56604;BME280;42486;47.478;19.036;2023-04-15T11:43:49;99360.97;;;13.49;76.38
56604;BME280;42486;47.478;19.036;2023-04-15T11:46:54;99370.94;;;13.19;76.35
56604;BME280;42486;47.478;19.036;2023-04-15T11:50:14;99375.78;;;12.88;77.44
56604;BME280;42486;47.478;19.036;2023-04-15T11:53:19;99370.25;;;12.73;79.48
56604;BME280;42486;47.478;19.036;2023-04-15T11:56:24;99380.16;;;12.80;79.49
56604;BME280;42486;47.478;19.036;2023-04-15T11:59:40;99376.84;;;12.77;80.80
56604;BME280;42486;47.478;19.036;2023-04-15T12:02:49;99385.16;;;12.73;80.01
56604;BME280;42486;47.478;19.036;2023-04-15T12:09:09;99387.66;;;12.56;83.68
56604;BME280;42486;47.478;19.036;2023-04-15T12:12:13;99372.66;;;12.67;83.92
56604;BME280;42486;47.478;19.036;2023-04-15T12:15:21;99373.25;;;13.22;81.17
56604;BME280;42486;47.478;19.036;2023-04-15T12:18:29;99380.56;;;13.63;74.00
56604;BME280;42486;47.478;19.036;2023-04-15T12:21:34;99379.31;;;13.41;75.33
56604;BME280;42486;47.478;19.036;2023-04-15T12:24:40;99374.47;;;13.54;76.95
56604;BME280;42486;47.478;19.036;2023-04-15T12:27:49;99383.47;;;13.52;77.07
56604;BME280;42486;47.478;19.036;2023-04-15T12:30:53;99376.66;;;13.15;77.73
56604;BME280;42486;47.478;19.036;2023-04-15T12:33:57;99381.66;;;13.08;78.16
56604;BME280;42486;47.478;19.036;2023-04-15T12:37:04;99379.53;;;13.04;76.61
56604;BME280;42486;47.478;19.036;2023-04-15T12:40:09;99386.09;;;13.08;79.10
56604;BME280;42486;47.478;19.036;2023-04-15T12:43:12;99382.16;;;12.86;79.28
56604;BME280;42486;47.478;19.036;2023-04-15T12:46:15;99388.16;;;12.60;80.77
56604;BME280;42486;47.478;19.036;2023-04-15T12:49:22;99399.03;;;12.47;82.06
56604;BME280;42486;47.478;19.036;2023-04-15T12:52:27;99389.94;;;12.24;82.34
56604;BME280;42486;47.478;19.036;2023-04-15T12:55:30;99391.97;;;12.30;82.23
56604;BME280;42486;47.478;19.036;2023-04-15T12:58:34;99398.41;;;12.36;84.25
56604;BME280;42486;47.478;19.036;2023-04-15T13:01:38;99397.97;;;12.40;80.99
56604;BME280;42486;47.478;19.036;2023-04-15T13:04:41;99401.63;;;12.65;81.50
56604;BME280;42486;47.478;19.036;2023-04-15T13:07:45;99398.78;;;12.94;79.73
56604;BME280;42486;47.478;19.036;2023-04-15T13:10:48;99394.22;;;12.96;79.99
56604;BME280;42486;47.478;19.036;2023-04-15T13:13:51;99408.69;;;13.00;78.69
56604;BME280;42486;47.478;19.036;2023-04-15T13:16:55;99401.03;;;12.89;80.48
56604;BME280;42486;47.478;19.036;2023-04-15T13:19:59;99406.50;;;12.78;78.21
56604;BME280;42486;47.478;19.036;2023-04-15T13:23:02;99401.25;;;12.78;78.65
56604;BME280;42486;47.478;19.036;2023-04-15T13:26:05;99405.91;;;12.84;80.07
56604;BME280;42486;47.478;19.036;2023-04-15T13:29:08;99405.63;;;12.87;80.24
56604;BME280;42486;47.478;19.036;2023-04-15T13:32:12;99401.50;;;12.85;80.79
56604;BME280;42486;47.478;19.036;2023-04-15T13:35:15;99402.25;;;12.77;80.13
56604;BME280;42486;47.478;19.036;2023-04-15T13:38:19;99402.75;;;12.63;78.64
56604;BME280;42486;47.478;19.036;2023-04-15T13:41:23;99407.81;;;12.74;80.92
56604;BME280;42486;47.478;19.036;2023-04-15T13:44:25;99405.16;;;12.92;80.00
56604;BME280;42486;47.478;19.036;2023-04-15T13:47:28;99409.16;;;13.22;78.87
56604;BME280;42486;47.478;19.036;2023-04-15T13:50:31;99409.72;;;13.52;76.48
56604;BME280;42486;47.478;19.036;2023-04-15T13:53:35;99422.09;;;13.41;77.34
56604;BME280;42486;47.478;19.036;2023-04-15T13:56:42;99416.81;;;13.33;77.46
56604;BME280;42486;47.478;19.036;2023-04-15T13:59:45;99413.97;;;13.09;79.15
56604;BME280;42486;47.478;19.036;2023-04-15T14:02:48;99409.94;;;12.78;80.53
56604;BME280;42486;47.478;19.036;2023-04-15T14:05:52;99418.72;;;12.69;81.88
56604;BME280;42486;47.478;19.036;2023-04-15T14:08:57;99419.25;;;12.73;82.61
56604;BME280;42486;47.478;19.036;2023-04-15T14:12:01;99429.56;;;12.92;80.16
56604;BME280;42486;47.478;19.036;2023-04-15T14:15:03;99418.50;;;12.98;80.55
56604;BME280;42486;47.478;19.036;2023-04-15T14:18:07;99420.56;;;12.95;75.43
56604;BME280;42486;47.478;19.036;2023-04-15T14:21:10;99429.66;;;12.83;77.69
56604;BME280;42486;47.478;19.036;2023-04-15T14:24:14;99430.72;;;12.72;78.55
56604;BME280;42486;47.478;19.036;2023-04-15T14:27:18;99438.41;;;12.55;79.87
56604;BME280;42486;47.478;19.036;2023-04-15T14:30:21;99444.13;;;12.41;81.40
56604;BME280;42486;47.478;19.036;2023-04-15T14:33:24;99442.41;;;12.32;81.17
56604;BME280;42486;47.478;19.036;2023-04-15T14:36:28;99444.44;;;12.10;86.21
56604;BME280;42486;47.478;19.036;2023-04-15T14:39:31;99449.53;;;12.12;85.09
56604;BME280;42486;47.478;19.036;2023-04-15T14:42:35;99448.56;;;12.13;88.54
56604;BME280;42486;47.478;19.036;2023-04-15T14:45:38;99445.78;;;12.15;88.85
56604;BME280;42486;47.478;19.036;2023-04-15T14:48:46;99454.66;;;12.04;91.18
56604;BME280;42486;47.478;19.036;2023-04-15T14:51:49;99454.56;;;11.96;92.95
56604;BME280;42486;47.478;19.036;2023-04-15T14:54:52;99461.78;;;11.74;91.76
56604;BME280;42486;47.478;19.036;2023-04-15T14:57:54;99451.44;;;11.73;92.97
56604;BME280;42486;47.478;19.036;2023-04-15T15:00:57;99453.22;;;11.72;92.71
56604;BME280;42486;47.478;19.036;2023-04-15T15:04:00;99453.06;;;11.83;92.52
56604;BME280;42486;47.478;19.036;2023-04-15T15:07:04;99455.44;;;11.86;89.94
56604;BME280;42486;47.478;19.036;2023-04-15T15:10:07;99453.34;;;11.80;90.21
56604;BME280;42486;47.478;19.036;2023-04-15T15:13:10;99454.09;;;11.63;85.63
56604;BME280;42486;47.478;19.036;2023-04-15T15:16:14;99466.94;;;11.46;86.56
56604;BME280;42486;47.478;19.036;2023-04-15T15:19:17;99464.34;;;11.37;85.99
56604;BME280;42486;47.478;19.036;2023-04-15T15:22:19;99457.72;;;11.33;87.81
56604;BME280;42486;47.478;19.036;2023-04-15T15:25:22;99480.03;;;11.37;88.83
56604;BME280;42486;47.478;19.036;2023-04-15T15:28:25;99469.44;;;11.38;87.09
56604;BME280;42486;47.478;19.036;2023-04-15T15:31:28;99477.81;;;11.42;90.04
56604;BME280;42486;47.478;19.036;2023-04-15T15:34:31;99482.09;;;11.33;89.48
56604;BME280;42486;47.478;19.036;2023-04-15T15:37:34;99476.47;;;11.28;89.35
56604;BME280;42486;47.478;19.036;2023-04-15T15:40:37;99488.16;;;11.24;92.94
56604;BME280;42486;47.478;19.036;2023-04-15T15:43:40;99489.41;;;11.20;95.43
56604;BME280;42486;47.478;19.036;2023-04-15T15:46:44;99502.72;;;11.17;97.28
56604;BME280;42486;47.478;19.036;2023-04-15T15:49:47;99511.13;;;11.11;99.17
56604;BME280;42486;47.478;19.036;2023-04-15T15:52:50;99510.88;;;11.04;100.00
56604;BME280;42486;47.478;19.036;2023-04-15T15:55:53;99511.53;;;10.96;100.00
56604;BME280;42486;47.478;19.036;2023-04-15T15:58:56;99519.09;;;10.90;100.00
56604;BME280;42486;47.478;19.036;2023-04-15T16:02:00;99526.09;;;10.79;100.00
56604;BME280;42486;47.478;19.036;2023-04-15T16:05:04;99530.72;;;10.66;100.00
56604;BME280;42486;47.478;19.036;2023-04-15T16:08:09;99527.91;;;10.39;100.00
56604;BME280;42486;47.478;19.036;2023-04-15T16:11:13;99534.59;;;10.01;100.00